Date,TemperatureHighF,TemperatureAvgF,TemperatureLowF,DewpointHighF,DewpointAvgF,DewpointLowF,HumidityHigh,HumidityAvg,HumidityLow,PressureMaxIn,PressureMinIn,WindSpeedMaxMPH,WindSpeedAvgMPH,GustSpeedMaxMPH,PrecipitationSumIn
2013-9-1,81,72,66,73,69,65,98,90,72,29.77,29.71,7,2,14,0.00
2013-9-2,78,71,58,69,63,55,96,78,52,29.93,29.71,13,4,18,0.00
2013-9-3,74,61,49,59,54,48,96,79,55,30.05,29.93,7,2,14,0.00
2013-9-4,80,64,50,61,56,49,98,77,46,30.12,30.04,10,2,14,0.00
2013-9-5,78,66,56,59,52,44,97,65,33,30.21,30.10,8,2,11,0.00
2013-9-6,81,64,48,60,52,45,91,67,40,30.25,30.05,7,2,11,0.00
2013-9-7,86,73,61,68,62,56,86,72,46,30.05,29.88,13,3,16,0.00
2013-9-8,76,70,64,68,66,62,96,86,74,29.99,29.90,8,1,10,0.00
2013-9-9,91,75,63,74,66,57,87,74,55,29.99,29.84,10,3,16,0.00
2013-9-10,94,84,74,73,70,64,90,65,38,30.01,29.89,11,5,18,0.00
2013-9-11,93,81,72,72,69,66,89,71,41,30.03,29.90,12,5,21,0.03
2013-9-12,80,71,59,69,63,53,96,79,47,29.98,29.81,10,3,17,0.75
2013-9-13,65,57,48,53,46,42,86,68,44,30.12,29.98,14,3,16,0.00
2013-9-14,69,53,38,50,43,38,97,74,36,30.21,30.08,7,1,10,0.00
2013-9-15,67,56,44,57,50,42,95,82,56,30.11,30.00,8,2,11,0.09
2013-9-16,68,59,52,56,52,48,95,80,52,30.31,30.11,8,2,10,0.00
2013-9-17,70,57,45,53,49,44,94,75,51,30.36,30.17,5,1,10,0.00
2013-9-18,79,66,54,62,56,48,92,71,47,30.17,29.97,9,2,13,0.00
2013-9-19,70,67,65,68,65,62,97,94,79,30.02,29.95,7,2,10,0.93
2013-9-24,66,65,63,50,50,49,63,58,54,30.04,29.99,8,3,10,0.00
2013-9-25,74,65,54,55,52,50,92,67,47,29.97,29.90,6,1,8,0.00
2013-9-26,79,60,46,57,50,45,98,76,37,30.09,29.95,4,1,9,0.01
2013-9-27,78,62,46,57,50,42,96,69,45,30.19,30.09,7,1,10,0.00
2013-9-28,81,66,51,58,54,50,95,69,40,30.14,29.97,11,3,17,0.00
2013-9-29,69,62,49,60,56,48,94,81,60,29.98,29.93,9,2,13,0.10
2013-9-30,72,55,44,60,52,43,97,88,58,30.02,29.92,8,1,15,0.00